Time;durP1;ratioP1;P1;durP2;ratioP2;P2;SDS_P1;SDS_P2;PMS_P1;PMS_P2;Temp;Humidity;BMP_temperature;BMP_pressure;BME280_temperature;BME280_humidity;BME280_pressure;Samples;Min_cycle;Max_cycle;Signal;HPM_P1;HPM_P2
2022/05/27 00:01:15;;;;;;;;;;;;;;;;;;5093077;28;20282;-63
2022/05/27 00:04:01;;;;;;;;;;;;;;;;;;5092808;28;19916;-63
2022/05/27 00:06:46;;;;;;;;;;;;;;;;;;5099340;28;20133;-65
2022/05/27 00:09:32;;;;;;;;;;;;;;;;;;5077849;28;19999;-66
2022/05/27 00:12:17;;;;;;;;;;;;;;;;;;5092754;28;20346;-69
2022/05/27 00:15:03;;;;;;;;;;;;;;;;;;5092513;28;20362;-69
2022/05/27 00:17:48;;;;;;;;;;;;;;;;;;5072654;28;19916;-69
2022/05/27 00:20:33;;;;;;;;;;;;;;;;;;5071609;28;20408;-68
2022/05/27 00:23:20;;;;;;;;;;;;;;;;;;5072615;28;19919;-68
2022/05/27 00:26:05;;;;;;;;;;;;;;;;;;5071746;28;19923;-69
2022/05/27 00:28:51;;;;;;;;;;;;;;;;;;5071130;28;20279;-65
2022/05/27 00:31:36;;;;;;;;;;;;;;;;;;5071341;28;19923;-69
2022/05/27 00:34:22;;;;;;;;;;;;;;;;;;5072177;28;20126;-69
2022/05/27 00:37:07;;;;;;;;;;;;;;;;;;5072063;28;19913;-68
2022/05/27 00:39:53;;;;;;;;;;;;;;;;;;5079216;28;20372;-68
2022/05/27 00:42:38;;;;;;;;;;;;;;;;;;5072317;28;20295;-69
2022/05/27 00:45:23;;;;;;;;;;;;;;;;;;5077446;28;19970;-69
2022/05/27 00:48:09;;;;;;;;;;;;;;;;;;5092495;28;19916;-68
2022/05/27 00:50:54;;;;;;;;;;;;;;;;;;5092217;28;19916;-69
2022/05/27 00:53:40;;;;;;;;;;;;;;;;;;5092567;28;20346;-69
2022/05/27 00:56:25;;;;;;;;;;;;;;;;;;5092462;28;20190;-68
2022/05/27 00:59:11;;;;;;;;;;;;;;;;;;5092417;28;20359;-69
2022/05/27 01:01:56;;;;;;;;;;;;;;;;;;5092061;28;20019;-69
2022/05/27 01:04:41;;;;;;;;;;;;;;;;;;5092495;28;20032;-75
2022/05/27 01:07:27;;;;;;;;;;;;;;;;;;5076153;28;19916;-66
2022/05/27 01:10:12;;;;;;;;;;;;;;;;;;5096441;28;19919;-63
2022/05/27 01:12:58;;;;;;;;;;;;;;;;;;5094580;28;20383;-64
2022/05/27 01:15:43;;;;;;;;;;;;;;;;;;5098923;28;19993;-64
2022/05/27 01:20:18;;;;;;;;;;;;;;;;;;5116059;28;20251;-64
2022/05/27 01:21:34;;;;;;;;;;;;;;;;;;5115433;28;19915;-64
2022/05/27 01:24:19;;;;;;;;;;;;;;;;;;5115754;28;19947;-70
2022/05/27 01:27:05;;;;;;;;;;;;;;;;;;5101688;28;19974;-70
2022/05/27 01:29:50;;;;;;;;;;;;;;;;;;5115703;28;20378;-69
2022/05/27 01:32:41;;;;;;;;;;;;;;;;;;5115664;28;19916;-70
2022/05/27 01:35:27;;;;;;;;;;;;;;;;;;5101277;28;19912;-70
2022/05/27 01:38:12;;;;;;;;;;;;;;;;;;5115246;28;19924;-70
2022/05/27 01:40:57;;;;;;;;;;;;;;;;;;5101301;28;20011;-70
2022/05/27 01:43:43;;;;;;;;;;;;;;;;;;5123021;28;20259;-63
2022/05/27 01:46:28;;;;;;;;;;;;;;;;;;5086861;28;19923;-63
2022/05/27 01:49:14;;;;;;;;;;;;;;;;;;5095572;28;20259;-63
2022/05/27 01:51:59;;;;;;;;;;;;;;;;;;5095492;28;19916;-64
2022/05/27 01:54:45;;;;;;;;;;;;;;;;;;5095789;28;19916;-62
2022/05/27 01:57:30;;;;;;;;;;;;;;;;;;5080308;28;19939;-63
2022/05/27 02:00:16;;;;;;;;;;;;;;;;;;5095287;28;20015;-65
2022/05/27 02:03:01;;;;;;;;;;;;;;;;;;5079600;28;19916;-72
2022/05/27 02:05:47;;;;;;;;;;;;;;;;;;5095263;28;20007;-71
2022/05/27 02:08:32;;;;;;;;;;;;;;;;;;5095341;28;20359;-72
2022/05/27 02:11:19;;;;;;;;;;;;;;;;;;5095269;28;19923;-71
2022/05/27 02:14:05;;;;;;;;;;;;;;;;;;5098073;28;19958;-72
2022/05/27 02:16:51;;;;;;;;;;;;;;;;;;5111329;28;20011;-74
2022/05/27 02:19:36;;;;;;;;;;;;;;;;;;5114847;28;19924;-69
2022/05/27 02:22:22;;;;;;;;;;;;;;;;;;5114789;28;20275;-68
2022/05/27 02:25:07;;;;;;;;;;;;;;;;;;5114534;28;19916;-68
2022/05/27 02:27:52;;;;;;;;;;;;;;;;;;5100465;28;20324;-68
2022/05/27 02:30:38;;;;;;;;;;;;;;;;;;5100475;28;19916;-69
2022/05/27 02:36:28;;;;;;;;;;;;;;;;;;5114441;28;19930;-66
2022/05/27 02:39:13;;;;;;;;;;;;;;;;;;5114471;28;19919;-64
2022/05/27 02:41:59;;;;;;;;;;;;;;;;;;5114390;28;19915;-64
2022/05/27 02:44:44;;;;;;;;;;;;;;;;;;5114415;28;19919;-64
2022/05/27 02:47:30;;;;;;;;;;;;;;;;;;5081832;28;19923;-65
2022/05/27 02:50:15;;;;;;;;;;;;;;;;;;5074136;28;19920;-64
2022/05/27 02:53:01;;;;;;;;;;;;;;;;;;5073393;28;19912;-70
2022/05/27 02:55:46;;;;;;;;;;;;;;;;;;5072960;28;19969;-66
2022/05/27 02:58:31;;;;;;;;;;;;;;;;;;5073626;28;19921;-70
2022/05/27 03:01:17;;;;;;;;;;;;;;;;;;5072727;28;19970;-70
2022/05/27 03:04:02;;;;;;;;;;;;;;;;;;5072837;28;19963;-70
2022/05/27 03:06:48;;;;;;;;;;;;;;;;;;5072558;28;20390;-70
2022/05/27 03:09:33;;;;;;;;;;;;;;;;;;5071597;28;19916;-70
2022/05/27 03:12:19;;;;;;;;;;;;;;;;;;5072695;28;19924;-69
2022/05/27 03:15:04;;;;;;;;;;;;;;;;;;5075049;28;19917;-69
2022/05/27 03:17:49;;;;;;;;;;;;;;;;;;5074517;28;19920;-68
2022/05/27 03:20:35;;;;;;;;;;;;;;;;;;5091307;28;19923;-68
2022/05/27 03:23:20;;;;;;;;;;;;;;;;;;5070842;28;19963;-67
2022/05/27 03:26:06;;;;;;;;;;;;;;;;;;5093071;28;19927;-68
2022/05/27 03:28:51;;;;;;;;;;;;;;;;;;5064403;28;19916;-70
2022/05/27 03:31:37;;;;;;;;;;;;;;;;;;5073712;28;19916;-72
2022/05/27 03:34:22;;;;;;;;;;;;;;;;;;5086436;28;20382;-69
2022/05/27 03:37:08;;;;;;;;;;;;;;;;;;5071749;28;20061;-70
2022/05/27 03:39:54;;;;;;;;;;;;;;;;;;5092835;28;20014;-68
2022/05/27 03:42:39;;;;;;;;;;;;;;;;;;5092646;28;19922;-69
2022/05/27 03:45:25;;;;;;;;;;;;;;;;;;5092982;28;19916;-68
2022/05/27 03:48:10;;;;;;;;;;;;;;;;;;5093383;28;19938;-73
2022/05/27 03:50:55;;;;;;;;;;;;;;;;;;5097670;28;19912;-74
2022/05/27 03:56:45;;;;;;;;;;;;;;;;;;5093230;28;19959;-68
2022/05/27 03:59:31;;;;;;;;;;;;;;;;;;5093267;28;19920;-68
2022/05/27 04:02:16;;;;;;;;;;;;;;;;;;5093002;28;19923;-69
2022/05/27 04:05:01;;;;;;;;;;;;;;;;;;5092635;28;20190;-68
2022/05/27 04:07:47;;;;;;;;;;;;;;;;;;5077789;28;20386;-70
2022/05/27 04:10:33;;;;;;;;;;;;;;;;;;5091768;28;19923;-68
2022/05/27 04:13:18;;;;;;;;;;;;;;;;;;5077656;28;19923;-68
2022/05/27 04:16:04;;;;;;;;;;;;;;;;;;5099415;28;20276;-68
2022/05/27 04:18:49;;;;;;;;;;;;;;;;;;5098403;28;19919;-66
2022/05/27 04:21:34;;;;;;;;;;;;;;;;;;5112660;28;19922;-67
2022/05/27 04:24:21;;;;;;;;;;;;;;;;;;5106036;28;20405;-66
2022/05/27 04:27:06;;;;;;;;;;;;;;;;;;5112623;28;19922;-67
2022/05/27 04:29:52;;;;;;;;;;;;;;;;;;5113248;28;20248;-66
2022/05/27 04:32:37;;;;;;;;;;;;;;;;;;5112568;28;20478;-66
2022/05/27 04:35:23;;;;;;;;;;;;;;;;;;5112691;28;19916;-65
2022/05/27 04:38:08;;;;;;;;;;;;;;;;;;5112568;28;19920;-66
2022/05/27 04:40:54;;;;;;;;;;;;;;;;;;5112432;28;20243;-67
2022/05/27 04:43:39;;;;;;;;;;;;;;;;;;5112676;28;20261;-71
2022/05/27 04:46:25;;;;;;;;;;;;;;;;;;5098424;28;19919;-69
2022/05/27 04:49:50;;;;;;;;;;;;;;;;;;5093229;28;19979;-70
2022/05/27 04:52:16;;;;;;;;;;;;;;;;;;5095984;28;19916;-70
2022/05/27 04:55:06;;;;;;;;;;;;;;;;;;5086485;28;19912;-70
2022/05/27 04:57:53;;;;;;;;;;;;;;;;;;5082337;28;19928;-69
2022/05/27 05:00:38;;;;;;;;;;;;;;;;;;5080687;28;19916;-68
2022/05/27 05:03:23;;;;;;;;;;;;;;;;;;5096447;28;19917;-69
2022/05/27 05:06:09;;;;;;;;;;;;;;;;;;5080997;28;19961;-70
2022/05/27 05:08:54;;;;;;;;;;;;;;;;;;5096679;28;20290;-69
2022/05/27 05:11:40;;;;;;;;;;;;;;;;;;5095880;28;19916;-69
2022/05/27 05:14:25;;;;;;;;;;;;;;;;;;5096230;28;19981;-69
2022/05/27 05:17:11;;;;;;;;;;;;;;;;;;5112723;28;19999;-68
2022/05/27 05:19:57;;;;;;;;;;;;;;;;;;5116166;28;19982;-69
2022/05/27 05:22:42;;;;;;;;;;;;;;;;;;5116081;28;19942;-70
2022/05/27 05:25:28;;;;;;;;;;;;;;;;;;5115836;28;19923;-73
2022/05/27 05:28:14;;;;;;;;;;;;;;;;;;5124274;28;19911;-74
2022/05/27 05:30:59;;;;;;;;;;;;;;;;;;5115921;28;19962;-74
2022/05/27 05:33:44;;;;;;;;;;;;;;;;;;5115631;28;20350;-72
2022/05/27 05:36:30;;;;;;;;;;;;;;;;;;5090980;28;19924;-73
2022/05/27 05:39:15;;;;;;;;;;;;;;;;;;5077717;28;20277;-72
2022/05/27 05:42:01;;;;;;;;;;;;;;;;;;5070900;28;20006;-72
2022/05/27 05:44:46;;;;;;;;;;;;;;;;;;5094144;28;19937;-70
2022/05/27 05:47:32;;;;;;;;;;;;;;;;;;5095211;28;19920;-70
2022/05/27 05:50:17;;;;;;;;;;;;;;;;;;5085469;28;19990;-71
2022/05/27 05:53:03;;;;;;;;;;;;;;;;;;5082949;28;19916;-70
2022/05/27 05:55:48;;;;;;;;;;;;;;;;;;5087585;28;19960;-70
2022/05/27 05:58:34;;;;;;;;;;;;;;;;;;5076773;28;20199;-68
2022/05/27 06:01:19;;;;;;;;;;;;;;;;;;5076802;28;19917;-70
2022/05/27 06:04:05;;;;;;;;;;;;;;;;;;5073076;28;20316;-70
2022/05/27 06:06:50;;;;;;;;;;;;;;;;;;5073377;28;19916;-70
2022/05/27 06:09:36;;;;;;;;;;;;;;;;;;5073574;28;20035;-70
2022/05/27 06:12:23;;;;;;;;;;;;;;;;;;5072984;28;20291;-70
2022/05/27 06:15:09;;;;;;;;;;;;;;;;;;5072869;28;19923;-69
2022/05/27 06:17:54;;;;;;;;;;;;;;;;;;5077548;28;19947;-66
2022/05/27 06:20:40;;;;;;;;;;;;;;;;;;5086587;28;19955;-66
2022/05/27 06:23:29;;;;;;;;;;;;;;;;;;5078934;28;19948;-67
2022/05/27 06:26:14;;;;;;;;;;;;;;;;;;5081812;28;19966;-64
2022/05/27 06:35:08;;;;;;;;;;;;;;;;;;5094373;28;19916;-70
2022/05/27 06:37:54;;;;;;;;;;;;;;;;;;5093313;28;19916;-67
2022/05/27 06:40:39;;;;;;;;;;;;;;;;;;5079735;28;20363;-65
2022/05/27 06:43:25;;;;;;;;;;;;;;;;;;5093325;28;20160;-67
2022/05/27 06:46:10;;;;;;;;;;;;;;;;;;5093231;28;20014;-67
2022/05/27 06:48:56;;;;;;;;;;;;;;;;;;5093234;28;19917;-65
2022/05/27 06:51:41;;;;;;;;;;;;;;;;;;5094432;28;19981;-68
2022/05/27 06:54:27;;;;;;;;;;;;;;;;;;5094433;28;19956;-69
2022/05/27 06:57:12;;;;;;;;;;;;;;;;;;5094892;28;19920;-74
2022/05/27 06:59:58;;;;;;;;;;;;;;;;;;5094153;28;19920;-74
2022/05/27 07:02:43;;;;;;;;;;;;;;;;;;5096856;28;19912;-75
2022/05/27 07:05:29;;;;;;;;;;;;;;;;;;5095654;28;20007;-75
2022/05/27 07:08:14;;;;;;;;;;;;;;;;;;5078693;28;19923;-75
2022/05/27 07:11:00;;;;;;;;;;;;;;;;;;5092629;28;19966;-70
2022/05/27 07:13:45;;;;;;;;;;;;;;;;;;5092484;28;20392;-70
2022/05/27 07:16:31;;;;;;;;;;;;;;;;;;5103578;28;19916;-68
2022/05/27 07:19:19;;;;;;;;;;;;;;;;;;5113820;28;19942;-67
2022/05/27 07:22:04;;;;;;;;;;;;;;;;;;5113734;28;19919;-68
2022/05/27 07:24:50;;;;;;;;;;;;;;;;;;5113573;28;20361;-68
2022/05/27 07:27:35;;;;;;;;;;;;;;;;;;5113685;28;19915;-68
2022/05/27 07:30:21;;;;;;;;;;;;;;;;;;5113958;28;19937;-73
2022/05/27 07:33:06;;;;;;;;;;;;;;;;;;5113666;28;19916;-67
2022/05/27 07:35:52;;;;;;;;;;;;;;;;;;5121767;28;20270;-67
2022/05/27 07:38:37;;;;;;;;;;;;;;;;;;5113124;28;19919;-65
2022/05/27 07:41:23;;;;;;;;;;;;;;;;;;5112730;28;19922;-67
2022/05/27 07:44:08;;;;;;;;;;;;;;;;;;5113472;28;20036;-66
2022/05/27 07:46:54;;;;;;;;;;;;;;;;;;5095001;28;19916;-66
2022/05/27 07:49:39;;;;;;;;;;;;;;;;;;5078047;28;19916;-75
2022/05/27 07:52:25;;;;;;;;;;;;;;;;;;5077114;28;19918;-71
2022/05/27 07:55:10;;;;;;;;;;;;;;;;;;5093193;28;19916;-70
2022/05/27 07:57:56;;;;;;;;;;;;;;;;;;5093266;28;20354;-70
2022/05/27 08:00:43;;;;;;;;;;;;;;;;;;5092586;28;20209;-70
2022/05/27 08:03:28;;;;;;;;;;;;;;;;;;5092853;28;19916;-71
2022/05/27 08:06:14;;;;;;;;;;;;;;;;;;5094845;28;19919;-66
2022/05/27 08:08:59;;;;;;;;;;;;;;;;;;5097644;28;19923;-67
2022/05/27 08:11:45;;;;;;;;;;;;;;;;;;5092727;28;20290;-70
2022/05/27 08:14:31;;;;;;;;;;;;;;;;;;5092873;28;19959;-70
2022/05/27 08:17:16;;;;;;;;;;;;;;;;;;5109393;28;20339;-70
2022/05/27 08:20:02;;;;;;;;;;;;;;;;;;5112716;28;19988;-71
2022/05/27 08:22:47;;;;;;;;;;;;;;;;;;5112669;28;19916;-69
2022/05/27 08:25:33;;;;;;;;;;;;;;;;;;5113069;28;19916;-69
2022/05/27 08:28:18;;;;;;;;;;;;;;;;;;5112724;28;20026;-75
2022/05/27 08:31:04;;;;;;;;;;;;;;;;;;5112621;28;19968;-74
2022/05/27 08:39:58;;;;;;;;;;;;;;;;;;5120405;28;20195;-73
2022/05/27 08:42:44;;;;;;;;;;;;;;;;;;5098135;28;20061;-70
2022/05/27 08:45:31;;;;;;;;;;;;;;;;;;5105940;28;19916;-68
2022/05/27 08:48:17;;;;;;;;;;;;;;;;;;5091313;28;19923;-65
2022/05/27 08:51:04;;;;;;;;;;;;;;;;;;5092568;28;19916;-65
2022/05/27 08:53:50;;;;;;;;;;;;;;;;;;5091343;28;19923;-66
2022/05/27 08:59:40;;;;;;;;;;;;;;;;;;5092526;28;20064;-64
2022/05/27 09:02:26;;;;;;;;;;;;;;;;;;5091300;28;19916;-66
2022/05/27 09:05:15;;;;;;;;;;;;;;;;;;5077350;28;19992;-68
2022/05/27 09:08:00;;;;;;;;;;;;;;;;;;5091393;28;19917;-66
2022/05/27 09:10:46;;;;;;;;;;;;;;;;;;5081308;28;19918;-67
2022/05/27 09:13:34;;;;;;;;;;;;;;;;;;5094757;28;20260;-67
2022/05/27 09:16:19;;;;;;;;;;;;;;;;;;5100274;28;19922;-66
2022/05/27 09:19:05;;;;;;;;;;;;;;;;;;5111909;28;20358;-67
2022/05/27 09:21:51;;;;;;;;;;;;;;;;;;5111980;28;19916;-76
2022/05/27 09:24:38;;;;;;;;;;;;;;;;;;5112077;28;20406;-77
2022/05/27 09:27:23;;;;;;;;;;;;;;;;;;5112237;28;19968;-76
2022/05/27 09:30:09;;;;;;;;;;;;;;;;;;5097829;28;19922;-78
2022/05/27 09:32:54;;;;;;;;;;;;;;;;;;5111871;28;20386;-78
2022/05/27 09:35:40;;;;;;;;;;;;;;;;;;5099187;28;19911;-77
2022/05/27 09:38:25;;;;;;;;;;;;;;;;;;5115624;28;19927;-70
2022/05/27 09:41:11;;;;;;;;;;;;;;;;;;5116336;28;19923;-67
2022/05/27 09:43:56;;;;;;;;;;;;;;;;;;5123569;28;19912;-66
2022/05/27 09:46:42;;;;;;;;;;;;;;;;;;5099078;28;19920;-67
2022/05/27 09:49:27;;;;;;;;;;;;;;;;;;5096104;28;20259;-68
2022/05/27 09:52:13;;;;;;;;;;;;;;;;;;5095490;28;20286;-68
2022/05/27 09:55:01;;;;;;;;;;;;;;;;;;5095786;28;19916;-68
2022/05/27 09:57:46;;;;;;;;;;;;;;;;;;5094824;28;20393;-67
2022/05/27 10:00:32;;;;;;;;;;;;;;;;;;5095578;28;19920;-67
2022/05/27 10:03:17;;;;;;;;;;;;;;;;;;5095435;28;19966;-67
2022/05/27 10:06:03;;;;;;;;;;;;;;;;;;5095341;28;20273;-66
2022/05/27 10:08:48;;;;;;;;;;;;;;;;;;5095542;28;19916;-65
2022/05/27 10:11:33;;;;;;;;;;;;;;;;;;5094978;28;19916;-67
2022/05/27 10:14:19;;;;;;;;;;;;;;;;;;5097809;28;19982;-67
2022/05/27 10:17:05;;;;;;;;;;;;;;;;;;5115438;28;19916;-67
2022/05/27 10:19:51;;;;;;;;;;;;;;;;;;5115551;28;20287;-65
2022/05/27 10:22:36;;;;;;;;;;;;;;;;;;5114957;28;20381;-64
2022/05/27 10:25:21;;;;;;;;;;;;;;;;;;5114929;28;19919;-65
2022/05/27 10:28:07;;;;;;;;;;;;;;;;;;5114973;28;19916;-67
2022/05/27 10:30:52;;;;;;;;;;;;;;;;;;5114955;28;19916;-66
2022/05/27 10:33:38;;;;;;;;;;;;;;;;;;5114516;28;19931;-70
2022/05/27 10:36:24;;;;;;;;;;;;;;;;;;5114473;28;19912;-67
2022/05/27 10:39:09;;;;;;;;;;;;;;;;;;5114891;28;19920;-74
2022/05/27 10:41:54;;;;;;;;;;;;;;;;;;5114122;28;19915;-75
2022/05/27 10:44:40;;;;;;;;;;;;;;;;;;5114465;28;20017;-77
2022/05/27 10:47:25;;;;;;;;;;;;;;;;;;5079791;28;19913;-76
2022/05/27 10:50:11;;;;;;;;;;;;;;;;;;5073271;28;20343;-75
2022/05/27 10:52:56;;;;;;;;;;;;;;;;;;5073308;28;19916;-67
2022/05/27 10:55:42;;;;;;;;;;;;;;;;;;5073251;28;19927;-77
2022/05/27 11:04:36;;;;;;;;;;;;;;;;;;5073558;28;19916;-78
2022/05/27 11:07:21;;;;;;;;;;;;;;;;;;5072704;28;20425;-77
2022/05/27 11:10:07;;;;;;;;;;;;;;;;;;5072635;28;19913;-66
2022/05/27 11:15:56;;;;;;;;;;;;;;;;;;5089455;28;19916;-70
2022/05/27 11:18:42;;;;;;;;;;;;;;;;;;5117766;28;19916;-69
2022/05/27 11:21:27;;;;;;;;;;;;;;;;;;5116267;28;19919;-69
2022/05/27 11:24:13;;;;;;;;;;;;;;;;;;5113459;28;19922;-69
2022/05/27 11:26:58;;;;;;;;;;;;;;;;;;5113878;28;19944;-69
2022/05/27 11:29:44;;;;;;;;;;;;;;;;;;5113299;28;20003;-74
2022/05/27 11:32:29;;;;;;;;;;;;;;;;;;5113260;28;19922;-67
2022/05/27 11:35:15;;;;;;;;;;;;;;;;;;5113563;28;19990;-67
2022/05/27 11:38:00;;;;;;;;;;;;;;;;;;5113138;28;19924;-66
2022/05/27 11:40:46;;;;;;;;;;;;;;;;;;5113533;28;20316;-65
2022/05/27 11:43:31;;;;;;;;;;;;;;;;;;5113409;28;19920;-66
2022/05/27 11:46:17;;;;;;;;;;;;;;;;;;5086096;28;20412;-66
2022/05/27 11:49:02;;;;;;;;;;;;;;;;;;5093652;28;20010;-67
2022/05/27 11:51:48;;;;;;;;;;;;;;;;;;5101220;28;19912;-68
2022/05/27 11:54:33;;;;;;;;;;;;;;;;;;5093182;28;19920;-68
2022/05/27 11:57:19;;;;;;;;;;;;;;;;;;5077987;28;20381;-68
2022/05/27 12:00:04;;;;;;;;;;;;;;;;;;5093217;28;19938;-67
2022/05/27 12:02:50;;;;;;;;;;;;;;;;;;5077349;28;20339;-69
2022/05/27 12:05:35;;;;;;;;;;;;;;;;;;5093366;28;19919;-65
2022/05/27 12:08:21;;;;;;;;;;;;;;;;;;5092951;28;19939;-76
2022/05/27 12:11:07;;;;;;;;;;;;;;;;;;5093404;28;20330;-69
2022/05/27 12:13:52;;;;;;;;;;;;;;;;;;5092166;28;19955;-71
2022/05/27 12:16:38;;;;;;;;;;;;;;;;;;5077315;28;20351;-70
2022/05/27 12:19:24;;;;;;;;;;;;;;;;;;5092267;28;20104;-70
2022/05/27 12:22:09;;;;;;;;;;;;;;;;;;5094256;28;20028;-70
2022/05/27 12:24:55;;;;;;;;;;;;;;;;;;5097000;28;20263;-66
2022/05/27 12:27:40;;;;;;;;;;;;;;;;;;5092557;28;19923;-77
2022/05/27 12:30:25;;;;;;;;;;;;;;;;;;5092661;28;19916;-76
2022/05/27 12:33:11;;;;;;;;;;;;;;;;;;5092071;28;20044;-77
2022/05/27 12:35:59;;;;;;;;;;;;;;;;;;5078022;28;20278;-77
2022/05/27 12:38:44;;;;;;;;;;;;;;;;;;5092182;28;19920;-76
2022/05/27 12:41:30;;;;;;;;;;;;;;;;;;5092116;28;19922;-77
2022/05/27 12:44:15;;;;;;;;;;;;;;;;;;5091999;28;20308;-67
2022/05/27 12:47:01;;;;;;;;;;;;;;;;;;5091922;28;19998;-68
2022/05/27 12:49:46;;;;;;;;;;;;;;;;;;5092744;28;19954;-68
2022/05/27 12:52:32;;;;;;;;;;;;;;;;;;5092437;28;19986;-68
2022/05/27 12:55:18;;;;;;;;;;;;;;;;;;5097878;28;19918;-68
2022/05/27 13:01:08;;;;;;;;;;;;;;;;;;5092633;28;19916;-72
2022/05/27 13:03:53;;;;;;;;;;;;;;;;;;5091846;28;19916;-70
2022/05/27 13:06:39;;;;;;;;;;;;;;;;;;5092060;28;19992;-70
2022/05/27 13:09:24;;;;;;;;;;;;;;;;;;5092561;28;20011;-70
2022/05/27 13:12:11;;;;;;;;;;;;;;;;;;5096211;28;19916;-70
2022/05/27 13:14:56;;;;;;;;;;;;;;;;;;5095345;28;19923;-71
2022/05/27 13:17:42;;;;;;;;;;;;;;;;;;5075823;28;20482;-70
2022/05/27 13:20:27;;;;;;;;;;;;;;;;;;5075404;28;19976;-67
2022/05/27 13:23:14;;;;;;;;;;;;;;;;;;5075329;28;19917;-65
2022/05/27 13:26:00;;;;;;;;;;;;;;;;;;5076881;28;19972;-66
2022/05/27 13:28:46;;;;;;;;;;;;;;;;;;5080717;28;19916;-66
2022/05/27 13:31:31;;;;;;;;;;;;;;;;;;5075350;28;19951;-65
2022/05/27 13:34:17;;;;;;;;;;;;;;;;;;5074545;28;19913;-65
2022/05/27 13:37:02;;;;;;;;;;;;;;;;;;5075203;28;19928;-67
2022/05/27 13:39:48;;;;;;;;;;;;;;;;;;5074964;28;19928;-72
2022/05/27 13:42:33;;;;;;;;;;;;;;;;;;5074994;28;19916;-76
2022/05/27 13:45:19;;;;;;;;;;;;;;;;;;5078697;28;19917;-76
2022/05/27 13:48:04;;;;;;;;;;;;;;;;;;5095937;28;20316;-76
2022/05/27 13:50:50;;;;;;;;;;;;;;;;;;5079793;28;19924;-76
2022/05/27 13:53:36;;;;;;;;;;;;;;;;;;5094461;28;19919;-77
2022/05/27 13:56:21;;;;;;;;;;;;;;;;;;5095674;28;19916;-66
2022/05/27 13:59:07;;;;;;;;;;;;;;;;;;5101682;28;19920;-68
2022/05/27 14:01:54;;;;;;;;;;;;;;;;;;5096161;28;19920;-68
2022/05/27 14:04:39;;;;;;;;;;;;;;;;;;5079795;28;19922;-68
2022/05/27 14:07:25;;;;;;;;;;;;;;;;;;5095224;28;19928;-67
2022/05/27 14:10:10;;;;;;;;;;;;;;;;;;5095381;28;20308;-67
2022/05/27 14:12:56;;;;;;;;;;;;;;;;;;5079389;28;19916;-67
2022/05/27 14:15:41;;;;;;;;;;;;;;;;;;5099403;28;19916;-76
2022/05/27 14:18:29;;;;;;;;;;;;;;;;;;5114985;28;19915;-67
2022/05/27 14:24:18;;;;;;;;;;;;;;;;;;5114500;28;20372;-67
2022/05/27 14:27:04;;;;;;;;;;;;;;;;;;5114983;28;19924;-66
2022/05/27 14:29:49;;;;;;;;;;;;;;;;;;5115524;28;19923;-66
2022/05/27 14:32:35;;;;;;;;;;;;;;;;;;5120304;28;19915;-68
2022/05/27 14:35:20;;;;;;;;;;;;;;;;;;5115049;28;19918;-67
2022/05/27 14:38:06;;;;;;;;;;;;;;;;;;5114304;28;19935;-67
2022/05/27 14:40:52;;;;;;;;;;;;;;;;;;5114762;28;19924;-68
2022/05/27 14:43:38;;;;;;;;;;;;;;;;;;5100202;28;20342;-67
2022/05/27 14:46:23;;;;;;;;;;;;;;;;;;5100790;28;20365;-67
2022/05/27 14:49:09;;;;;;;;;;;;;;;;;;5093728;28;20457;-68
2022/05/27 14:51:54;;;;;;;;;;;;;;;;;;5094656;28;19966;-77
2022/05/27 14:54:40;;;;;;;;;;;;;;;;;;5094369;28;19965;-69
2022/05/27 14:57:25;;;;;;;;;;;;;;;;;;5094547;28;20365;-71
2022/05/27 15:00:11;;;;;;;;;;;;;;;;;;5094472;28;19955;-72
2022/05/27 15:02:57;;;;;;;;;;;;;;;;;;5084889;28;19935;-72
2022/05/27 15:05:42;;;;;;;;;;;;;;;;;;5093983;28;19916;-71
2022/05/27 15:08:28;;;;;;;;;;;;;;;;;;5094400;28;20014;-71
2022/05/27 15:11:14;;;;;;;;;;;;;;;;;;5094104;28;19912;-76
2022/05/27 15:14:00;;;;;;;;;;;;;;;;;;5092562;28;19916;-67
2022/05/27 15:16:46;;;;;;;;;;;;;;;;;;5105879;28;19916;-67
2022/05/27 15:19:31;;;;;;;;;;;;;;;;;;5113638;28;20355;-68
2022/05/27 15:22:18;;;;;;;;;;;;;;;;;;5113597;28;19919;-68
2022/05/27 15:25:03;;;;;;;;;;;;;;;;;;5114030;28;19916;-67
2022/05/27 15:34:00;;;;;;;;;;;;;;;;;;5114445;28;19912;-67
2022/05/27 15:36:45;;;;;;;;;;;;;;;;;;5118401;28;20260;-68
2022/05/27 15:39:31;;;;;;;;;;;;;;;;;;5113446;28;20029;-67
2022/05/27 15:42:16;;;;;;;;;;;;;;;;;;5113526;28;19916;-68
2022/05/27 15:45:02;;;;;;;;;;;;;;;;;;5096986;28;19933;-67
2022/05/27 15:47:47;;;;;;;;;;;;;;;;;;5093566;28;19923;-70
2022/05/27 15:50:32;;;;;;;;;;;;;;;;;;5093604;28;20282;-68
2022/05/27 15:53:18;;;;;;;;;;;;;;;;;;5093218;28;19974;-67
2022/05/27 15:56:03;;;;;;;;;;;;;;;;;;5077369;28;19916;-68
2022/05/27 15:58:49;;;;;;;;;;;;;;;;;;5093535;28;19920;-68
2022/05/27 16:01:34;;;;;;;;;;;;;;;;;;5077828;28;19922;-68
2022/05/27 16:04:20;;;;;;;;;;;;;;;;;;5093110;28;19916;-67
2022/05/27 16:07:05;;;;;;;;;;;;;;;;;;5084369;28;19996;-68
2022/05/27 16:09:51;;;;;;;;;;;;;;;;;;5093625;28;20363;-70
2022/05/27 16:12:36;;;;;;;;;;;;;;;;;;5093116;28;19924;-72
2022/05/27 16:15:22;;;;;;;;;;;;;;;;;;5094527;28;20144;-72
2022/05/27 16:18:07;;;;;;;;;;;;;;;;;;5112837;28;20010;-72
2022/05/27 16:20:52;;;;;;;;;;;;;;;;;;5112658;28;19970;-71
2022/05/27 16:23:40;;;;;;;;;;;;;;;;;;5112716;28;20006;-65
2022/05/27 16:26:26;;;;;;;;;;;;;;;;;;5112752;28;19916;-66
2022/05/27 16:29:17;;;;;;;;;;;;;;;;;;5112686;28;20174;-66
2022/05/27 16:32:02;;;;;;;;;;;;;;;;;;5112510;28;19927;-66
2022/05/27 16:34:48;;;;;;;;;;;;;;;;;;5112573;28;19919;-65
2022/05/27 16:37:33;;;;;;;;;;;;;;;;;;5110231;28;20398;-66
2022/05/27 16:40:19;;;;;;;;;;;;;;;;;;5083900;28;19942;-66
2022/05/27 16:43:04;;;;;;;;;;;;;;;;;;5091291;28;19916;-68
2022/05/27 16:45:50;;;;;;;;;;;;;;;;;;5091091;28;19916;-59
2022/05/27 16:48:35;;;;;;;;;;;;;;;;;;5092316;28;19923;-57
2022/05/27 16:51:21;;;;;;;;;;;;;;;;;;5092118;28;19951;-60
2022/05/27 16:54:06;;;;;;;;;;;;;;;;;;5092221;28;19916;-59
2022/05/27 16:56:52;;;;;;;;;;;;;;;;;;5076875;28;19981;-58
2022/05/27 16:59:37;;;;;;;;;;;;;;;;;;5091282;28;20408;-58
2022/05/27 17:02:23;;;;;;;;;;;;;;;;;;5091044;28;20342;-67
2022/05/27 17:05:08;;;;;;;;;;;;;;;;;;5091388;28;20004;-76
2022/05/27 17:07:54;;;;;;;;;;;;;;;;;;5091011;28;20278;-76
2022/05/27 17:10:39;;;;;;;;;;;;;;;;;;5096177;28;19908;-75
2022/05/27 17:13:24;;;;;;;;;;;;;;;;;;5092681;28;19916;-76
2022/05/27 17:16:10;;;;;;;;;;;;;;;;;;5099461;28;19916;-75
2022/05/27 17:18:55;;;;;;;;;;;;;;;;;;5111337;28;19965;-68
2022/05/27 17:21:41;;;;;;;;;;;;;;;;;;5111721;28;20293;-66
2022/05/27 17:24:28;;;;;;;;;;;;;;;;;;5112208;28;20064;-66
2022/05/27 17:27:13;;;;;;;;;;;;;;;;;;5111417;28;19916;-66
2022/05/27 17:29:59;;;;;;;;;;;;;;;;;;5112016;28;20381;-67
2022/05/27 17:32:44;;;;;;;;;;;;;;;;;;5111721;28;19912;-67
2022/05/27 17:35:30;;;;;;;;;;;;;;;;;;5112129;28;20022;-66
2022/05/27 17:38:15;;;;;;;;;;;;;;;;;;5111920;28;19916;-66
2022/05/27 17:41:01;;;;;;;;;;;;;;;;;;5111961;28;20271;-73
2022/05/27 17:43:46;;;;;;;;;;;;;;;;;;5119952;28;19976;-71
2022/05/27 17:52:41;;;;;;;;;;;;;;;;;;5091680;28;19916;-71
2022/05/27 17:55:27;;;;;;;;;;;;;;;;;;5090915;28;19916;-69
2022/05/27 17:58:12;;;;;;;;;;;;;;;;;;5095574;28;20007;-66
2022/05/27 18:00:58;;;;;;;;;;;;;;;;;;5080497;28;19943;-78
2022/05/27 18:03:43;;;;;;;;;;;;;;;;;;5079392;28;19946;-77
2022/05/27 18:06:29;;;;;;;;;;;;;;;;;;5079989;28;20015;-78
2022/05/27 18:09:14;;;;;;;;;;;;;;;;;;5095479;28;20385;-77
2022/05/27 18:12:00;;;;;;;;;;;;;;;;;;5080211;28;19928;-77
2022/05/27 18:14:45;;;;;;;;;;;;;;;;;;5099993;28;19912;-66
2022/05/27 18:17:31;;;;;;;;;;;;;;;;;;5096613;28;20025;-69
2022/05/27 18:20:16;;;;;;;;;;;;;;;;;;5094613;28;19926;-69
2022/05/27 18:23:02;;;;;;;;;;;;;;;;;;5080400;28;20351;-68
2022/05/27 18:25:47;;;;;;;;;;;;;;;;;;5094792;28;19919;-69
2022/05/27 18:28:33;;;;;;;;;;;;;;;;;;5094247;28;19916;-69
2022/05/27 18:31:18;;;;;;;;;;;;;;;;;;5080382;28;19916;-68
2022/05/27 18:34:03;;;;;;;;;;;;;;;;;;5094567;28;19955;-77
2022/05/27 18:36:49;;;;;;;;;;;;;;;;;;5094335;28;19916;-67
2022/05/27 18:39:34;;;;;;;;;;;;;;;;;;5094081;28;19928;-67
2022/05/27 18:42:20;;;;;;;;;;;;;;;;;;5094262;28;19916;-67
2022/05/27 18:45:05;;;;;;;;;;;;;;;;;;5094077;28;19916;-68
2022/05/27 18:47:51;;;;;;;;;;;;;;;;;;5102847;28;19916;-66
2022/05/27 18:50:36;;;;;;;;;;;;;;;;;;5094656;28;20420;-66
2022/05/27 18:53:22;;;;;;;;;;;;;;;;;;5093314;28;19916;-65
2022/05/27 18:56:07;;;;;;;;;;;;;;;;;;5094252;28;19916;-66
2022/05/27 18:58:53;;;;;;;;;;;;;;;;;;5094786;28;20251;-67
2022/05/27 19:01:38;;;;;;;;;;;;;;;;;;5094347;28;19924;-66
2022/05/27 19:04:27;;;;;;;;;;;;;;;;;;5094300;28;19913;-66
2022/05/27 19:07:13;;;;;;;;;;;;;;;;;;5093029;28;20266;-65
2022/05/27 19:09:58;;;;;;;;;;;;;;;;;;5093994;28;20001;-68
2022/05/27 19:12:44;;;;;;;;;;;;;;;;;;5094269;28;20274;-70
2022/05/27 19:15:30;;;;;;;;;;;;;;;;;;5096948;28;19931;-70
2022/05/27 19:18:15;;;;;;;;;;;;;;;;;;5117180;28;20113;-68
2022/05/27 19:21:21;;;;;;;;;;;;;;;;;;5117296;28;19920;-69
2022/05/27 19:24:06;;;;;;;;;;;;;;;;;;5113958;28;19916;-68
2022/05/27 19:26:52;;;;;;;;;;;;;;;;;;5113595;28;19922;-69
2022/05/27 19:29:37;;;;;;;;;;;;;;;;;;5113702;28;20384;-68
2022/05/27 19:32:24;;;;;;;;;;;;;;;;;;5113707;28;19963;-72
2022/05/27 19:35:09;;;;;;;;;;;;;;;;;;5113594;28;19924;-72
2022/05/27 19:37:55;;;;;;;;;;;;;;;;;;5099074;28;20259;-72
2022/05/27 19:40:40;;;;;;;;;;;;;;;;;;5113700;28;19927;-71